createdAt,value
2018-02-03T00:01:27.531Z,73.20
2018-02-03T00:03:55.377Z,73.30
2018-02-03T00:06:23.165Z,73.30
2018-02-03T00:08:51.443Z,73.50
2018-02-03T00:11:19.833Z,73.20
2018-02-03T00:13:47.574Z,73.30
2018-02-03T00:16:16.017Z,73.10
2018-02-03T00:18:45.556Z,73.10
2018-02-03T00:21:13.276Z,73.20
2018-02-03T00:23:41.121Z,72.70
2018-02-03T00:26:08.902Z,72.70
2018-02-03T00:28:37.331Z,72.90
2018-02-03T00:31:05.197Z,73.10
2018-02-03T00:33:32.913Z,73.10
2018-02-03T00:36:02.023Z,72.70
2018-02-03T00:38:29.819Z,72.70
2018-02-03T00:40:58.456Z,72.60
2018-02-03T00:43:26.268Z,72.80
2018-02-03T00:45:53.992Z,73.00
2018-02-03T00:48:21.724Z,73.90
2018-02-03T00:50:49.767Z,73.30
2018-02-03T00:53:17.456Z,73.70
2018-02-03T00:55:45.391Z,74.80
2018-02-03T00:58:13.155Z,74.60
2018-02-03T01:00:41.526Z,74.70
2018-02-03T01:03:09.295Z,75.90
2018-02-03T01:05:37.076Z,75.60
2018-02-03T01:08:05.734Z,76.10
2018-02-03T01:10:33.713Z,76.00
2018-02-03T01:13:01.412Z,75.70
2018-02-03T01:15:29.337Z,76.20
2018-02-03T01:17:57.924Z,75.90
2018-02-03T01:20:25.996Z,76.30
2018-02-03T01:22:55.358Z,76.40
2018-02-03T01:25:23.265Z,76.40
2018-02-03T01:27:50.958Z,75.50
2018-02-03T01:30:18.645Z,75.30
2018-02-03T01:32:48.052Z,75.40
2018-02-03T01:35:15.781Z,75.40
2018-02-03T01:37:44.130Z,76.00
2018-02-03T01:40:11.846Z,76.00
2018-02-03T01:42:41.125Z,76.30
2018-02-03T01:45:09.533Z,76.10
2018-02-03T01:47:50.246Z,76.50
2018-02-03T01:50:19.109Z,76.20
2018-02-03T01:52:47.211Z,76.20
2018-02-03T01:55:14.963Z,76.30
2018-02-03T01:57:43.396Z,76.30
2018-02-03T02:00:11.220Z,76.50
2018-02-03T02:02:40.530Z,76.70
2018-02-03T02:05:08.264Z,76.90
2018-02-03T02:07:38.251Z,76.80
2018-02-03T02:10:06.754Z,77.00
2018-02-03T02:12:34.729Z,76.90
2018-02-03T02:15:03.515Z,76.90
2018-02-03T02:17:32.096Z,76.90
2018-02-03T02:19:59.882Z,77.00
2018-02-03T02:22:27.571Z,77.40
2018-02-03T02:24:56.310Z,77.10
2018-02-03T02:27:24.169Z,77.10
2018-02-03T02:29:51.896Z,77.10
2018-02-03T02:32:20.271Z,77.50
2018-02-03T02:34:48.694Z,77.40
2018-02-03T02:37:16.460Z,76.90
2018-02-03T02:39:44.332Z,77.00
2018-02-03T02:42:12.198Z,76.80
2018-02-03T02:44:41.422Z,77.90
2018-02-03T02:47:10.053Z,77.30
2018-02-03T02:49:38.345Z,77.20
2018-02-03T02:52:06.151Z,77.30
2018-02-03T02:54:34.287Z,76.90
2018-02-03T02:57:02.594Z,77.80
2018-02-03T02:59:30.640Z,76.80
2018-02-03T03:01:58.432Z,76.60
2018-02-03T03:04:26.440Z,76.80
2018-02-03T03:06:54.168Z,76.60
2018-02-03T03:09:23.344Z,76.60
2018-02-03T03:11:51.767Z,76.60
2018-02-03T03:14:19.488Z,76.40
2018-02-03T03:16:47.275Z,76.30
2018-02-03T03:19:16.732Z,76.50
2018-02-03T03:21:44.585Z,76.40
2018-02-03T03:24:12.456Z,76.70
2018-02-03T03:26:40.637Z,76.60
2018-02-03T03:29:08.708Z,76.50
2018-02-03T03:31:36.468Z,76.30
2018-02-03T03:34:04.832Z,76.00
2018-02-03T03:36:32.615Z,76.10
2018-02-03T03:39:00.572Z,76.10
2018-02-03T03:41:28.357Z,76.80
2018-02-03T03:43:57.039Z,76.00
2018-02-03T03:46:25.629Z,76.00
2018-02-03T03:48:54.223Z,75.80
2018-02-03T03:51:22.801Z,75.70
2018-02-03T03:53:51.256Z,75.70
2018-02-03T03:56:18.996Z,76.20
2018-02-03T03:58:46.770Z,76.10
2018-02-03T04:01:14.777Z,75.80
2018-02-03T04:03:42.603Z,75.90
2018-02-03T04:06:10.469Z,75.80
2018-02-03T04:08:38.447Z,75.90
2018-02-03T04:11:06.255Z,75.40
2018-02-03T04:13:35.437Z,75.30
2018-02-03T04:16:03.582Z,75.30
2018-02-03T04:18:31.556Z,75.40
2018-02-03T04:20:59.517Z,75.50
2018-02-03T04:23:27.383Z,75.60
2018-02-03T04:25:56.020Z,75.20
2018-02-03T04:28:24.017Z,75.50
2018-02-03T04:30:52.590Z,75.50
2018-02-03T04:33:21.049Z,75.00
2018-02-03T04:35:49.579Z,74.90
2018-02-03T04:38:17.257Z,74.80
2018-02-03T04:40:45.032Z,75.10
2018-02-03T04:43:12.686Z,75.10
2018-02-03T04:45:41.640Z,74.90
2018-02-03T04:48:09.625Z,74.90
2018-02-03T04:50:37.818Z,74.70
2018-02-03T04:53:05.692Z,74.40
2018-02-03T04:55:34.247Z,74.70
2018-02-03T04:58:02.001Z,74.10
2018-02-03T05:00:30.374Z,74.50
2018-02-03T05:02:58.358Z,74.20
2018-02-03T05:05:26.063Z,74.40
2018-02-03T05:07:54.701Z,73.80
2018-02-03T05:10:22.467Z,73.80
2018-02-03T05:12:50.461Z,73.90
2018-02-03T05:15:19.707Z,73.40
2018-02-03T05:17:48.374Z,73.40
2018-02-03T05:20:16.921Z,72.00
2018-02-03T05:22:45.345Z,72.00
2018-02-03T05:25:13.146Z,72.60
2018-02-03T05:27:41.183Z,72.50
2018-02-03T05:30:09.216Z,71.80
2018-02-03T05:32:37.263Z,71.80
2018-02-03T05:35:06.118Z,71.80
2018-02-03T05:37:34.707Z,71.90
2018-02-03T05:40:02.441Z,71.80
2018-02-03T05:42:31.242Z,72.30
2018-02-03T05:45:00.481Z,73.00
2018-02-03T05:47:28.843Z,72.50
2018-02-03T05:49:59.106Z,72.50
2018-02-03T05:52:27.690Z,72.60
2018-02-03T05:54:55.783Z,72.90
2018-02-03T05:57:23.704Z,73.40
2018-02-03T05:59:51.520Z,72.20
2018-02-03T06:02:20.174Z,71.60
2018-02-03T06:04:48.648Z,72.70
2018-02-03T06:07:17.151Z,72.70
2018-02-03T06:09:46.401Z,72.60
2018-02-03T06:12:14.331Z,72.60
2018-02-03T06:14:42.235Z,72.40
2018-02-03T06:17:10.333Z,72.50
2018-02-03T06:19:38.411Z,72.30
2018-02-03T06:22:07.161Z,72.60
2018-02-03T06:24:35.517Z,72.50
2018-02-03T06:27:03.349Z,72.70
2018-02-03T06:29:31.072Z,73.10
2018-02-03T06:31:59.080Z,73.70
2018-02-03T06:34:27.896Z,74.30
2018-02-03T06:36:56.536Z,74.20
2018-02-03T06:39:25.028Z,74.60
2018-02-03T06:41:53.481Z,74.80
2018-02-03T06:44:21.170Z,74.70
2018-02-03T06:46:49.915Z,75.20
2018-02-03T06:49:19.713Z,75.20
2018-02-03T06:51:47.812Z,75.20
2018-02-03T06:54:16.684Z,74.30
2018-02-03T06:56:45.446Z,74.30
2018-02-03T06:59:13.340Z,74.20
2018-02-03T07:01:41.049Z,74.00
2018-02-03T07:04:08.868Z,74.20
2018-02-03T07:06:38.899Z,74.50
2018-02-03T07:09:08.071Z,75.10
2018-02-03T07:11:36.205Z,75.10
2018-02-03T07:14:04.661Z,75.70
2018-02-03T07:16:32.712Z,75.70
2018-02-03T07:19:00.941Z,75.90
2018-02-03T07:21:29.719Z,75.80
2018-02-03T07:23:58.609Z,75.80
2018-02-03T07:26:27.249Z,75.70
2018-02-03T07:28:56.490Z,75.20
2018-02-03T07:31:24.301Z,75.10
2018-02-03T07:33:53.109Z,75.10
2018-02-03T07:36:21.557Z,73.60
2018-02-03T07:38:50.299Z,73.60
2018-02-03T07:41:18.531Z,74.00
2018-02-03T07:43:46.496Z,73.70
2018-02-03T07:46:14.361Z,73.50
2018-02-03T07:48:42.038Z,73.90
2018-02-03T07:51:09.852Z,74.10
2018-02-03T07:53:37.550Z,73.70
2018-02-03T07:56:05.949Z,73.70
2018-02-03T07:58:34.184Z,73.90
2018-02-03T08:01:02.947Z,73.90
2018-02-03T08:03:30.637Z,73.70
2018-02-03T08:05:58.467Z,74.00
2018-02-03T08:08:27.188Z,73.20
2018-02-03T08:10:55.754Z,73.10
2018-02-03T08:13:23.468Z,73.10
2018-02-03T08:15:51.313Z,72.90
2018-02-03T08:18:19.164Z,72.90
2018-02-03T08:20:47.763Z,73.20
2018-02-03T08:23:16.608Z,72.70
2018-02-03T08:25:44.414Z,72.80
2018-02-03T08:28:12.168Z,72.90
2018-02-03T08:30:40.658Z,72.80
2018-02-03T08:33:08.990Z,72.80
2018-02-03T08:35:37.446Z,73.40
2018-02-03T08:38:05.792Z,72.60
2018-02-03T08:40:34.302Z,73.10
2018-02-03T08:43:02.191Z,72.70
2018-02-03T08:45:30.704Z,73.50
2018-02-03T08:47:59.235Z,73.30
2018-02-03T08:50:27.066Z,72.90
2018-02-03T08:52:55.453Z,72.70
2018-02-03T08:55:23.299Z,73.20
2018-02-03T08:57:51.743Z,72.80
2018-02-03T09:00:20.968Z,74.10
2018-02-03T09:02:52.619Z,74.00
2018-02-03T09:05:21.223Z,73.90
2018-02-03T09:07:48.941Z,73.90
2018-02-03T09:10:17.489Z,73.80
2018-02-03T09:12:46.007Z,73.70
2018-02-03T09:15:14.664Z,73.00
2018-02-03T09:17:43.753Z,73.00
2018-02-03T09:20:11.432Z,72.40
2018-02-03T09:22:40.791Z,70.50
2018-02-03T09:25:09.421Z,70.50
2018-02-03T09:27:38.013Z,70.50
2018-02-03T09:30:08.031Z,70.10
2018-02-03T09:32:35.831Z,70.10
2018-02-03T09:35:03.734Z,70.30
2018-02-03T09:37:32.239Z,70.10
2018-02-03T09:40:00.209Z,70.10
2018-02-03T09:42:27.889Z,70.40
2018-02-03T09:44:56.492Z,70.80
2018-02-03T09:47:24.459Z,70.70
2018-02-03T09:49:52.214Z,70.90
2018-02-03T09:52:20.725Z,71.10
2018-02-03T09:54:48.585Z,71.10
2018-02-03T09:57:17.182Z,71.30
2018-02-03T09:59:45.853Z,71.10
2018-02-03T10:02:14.560Z,71.30
2018-02-03T10:04:43.131Z,71.00
2018-02-03T10:07:12.448Z,70.50
2018-02-03T10:09:40.208Z,70.50
2018-02-03T10:12:08.710Z,71.10
2018-02-03T10:14:37.298Z,71.00
2018-02-03T10:17:05.253Z,70.70
2018-02-03T10:19:34.399Z,69.60
2018-02-03T10:22:02.261Z,69.60
2018-02-03T10:24:30.765Z,69.90
2018-02-03T10:26:59.207Z,69.80
2018-02-03T10:29:28.513Z,69.80
2018-02-03T10:31:56.175Z,69.80
2018-02-03T10:34:24.580Z,70.10
2018-02-03T10:36:53.299Z,70.20
2018-02-03T10:39:22.595Z,70.20
2018-02-03T10:41:51.028Z,70.20
2018-02-03T10:44:19.212Z,69.90
2018-02-03T10:46:48.522Z,70.10
2018-02-03T10:49:17.391Z,70.60
2018-02-03T10:51:46.282Z,70.40
2018-02-03T10:54:14.109Z,70.30
2018-02-03T10:56:41.979Z,69.80
2018-02-03T10:59:10.385Z,69.90
2018-02-03T11:01:38.981Z,69.30
2018-02-03T11:04:07.653Z,69.50
2018-02-03T11:06:35.373Z,69.50
2018-02-03T11:09:03.082Z,69.00
2018-02-03T11:11:30.950Z,68.80
2018-02-03T11:13:58.722Z,69.00
2018-02-03T11:16:27.099Z,69.00
2018-02-03T11:18:54.963Z,68.50
2018-02-03T11:21:23.016Z,68.80
2018-02-03T11:23:51.688Z,68.30
2018-02-03T11:26:20.222Z,68.70
2018-02-03T11:28:48.131Z,68.70
2018-02-03T11:31:16.686Z,68.80
2018-02-03T11:33:44.505Z,68.70
2018-02-03T11:36:12.215Z,68.40
2018-02-03T11:38:40.007Z,68.40
2018-02-03T11:41:07.724Z,68.40
2018-02-03T11:43:35.447Z,68.40
2018-02-03T11:46:03.186Z,67.70
2018-02-03T11:48:30.921Z,67.70
2018-02-03T11:50:58.787Z,67.90
2018-02-03T11:53:27.228Z,67.90
2018-02-03T11:55:55.095Z,67.80
2018-02-03T11:58:22.884Z,67.30
2018-02-03T12:00:50.824Z,66.90
2018-02-03T12:03:18.721Z,67.40
2018-02-03T12:05:46.550Z,66.80
2018-02-03T12:08:14.327Z,66.70
2018-02-03T12:10:42.198Z,66.60
2018-02-03T12:13:11.006Z,66.50
2018-02-03T12:15:38.757Z,66.40
2018-02-03T12:18:07.996Z,65.70
2018-02-03T12:20:35.922Z,65.70
2018-02-03T12:23:04.468Z,65.30
2018-02-03T12:25:32.379Z,65.30
2018-02-03T12:28:01.061Z,65.60
2018-02-03T12:30:29.649Z,65.80
2018-02-03T12:32:58.102Z,66.50
2018-02-03T12:35:25.863Z,66.20
2018-02-03T12:37:54.444Z,66.20
2018-02-03T12:40:22.246Z,66.60
2018-02-03T12:42:49.989Z,66.40
2018-02-03T12:45:19.297Z,66.70
2018-02-03T12:47:47.837Z,66.50
2018-02-03T12:50:15.572Z,66.50
2018-02-03T12:52:44.098Z,66.20
2018-02-03T12:55:12.394Z,65.20
2018-02-03T12:57:41.985Z,65.40
2018-02-03T13:00:09.785Z,65.30
2018-02-03T13:02:39.061Z,66.00
2018-02-03T13:05:07.851Z,66.40
2018-02-03T13:07:35.557Z,66.40
2018-02-03T13:10:03.477Z,66.50
2018-02-03T13:12:31.204Z,67.10
2018-02-03T13:14:59.037Z,67.50
2018-02-03T13:17:26.765Z,67.60
2018-02-03T13:19:54.618Z,67.70
2018-02-03T13:22:22.392Z,67.50
2018-02-03T13:24:50.153Z,67.20
2018-02-03T13:27:18.688Z,67.10
2018-02-03T13:29:47.145Z,67.10
2018-02-03T13:32:15.917Z,66.90
2018-02-03T13:34:43.607Z,66.90
2018-02-03T13:37:11.429Z,66.30
2018-02-03T13:39:39.180Z,66.60
2018-02-03T13:42:07.576Z,66.50
2018-02-03T13:44:35.256Z,66.30
2018-02-03T13:47:04.033Z,65.30
2018-02-03T13:49:31.722Z,65.30
2018-02-03T13:52:00.177Z,65.10
2018-02-03T13:54:28.044Z,65.10
2018-02-03T13:56:55.810Z,65.20
2018-02-03T13:59:24.402Z,65.60
2018-02-03T14:01:52.867Z,65.80
2018-02-03T14:04:20.601Z,65.90
2018-02-03T14:06:48.340Z,65.90
2018-02-03T14:09:16.075Z,65.70
2018-02-03T14:11:44.550Z,66.20
2018-02-03T14:14:12.304Z,66.10
2018-02-03T14:16:40.082Z,66.60
2018-02-03T14:19:07.868Z,66.40
2018-02-03T14:21:35.593Z,66.10
2018-02-03T14:24:09.002Z,66.60
2018-02-03T14:26:36.773Z,66.30
2018-02-03T14:29:05.400Z,66.10
2018-02-03T14:31:33.117Z,66.00
2018-02-03T14:34:01.622Z,66.60
2018-02-03T14:39:03.620Z,66.80
2018-02-03T14:41:31.892Z,67.10
2018-02-03T14:44:00.713Z,67.20
2018-02-03T14:46:29.938Z,67.40
2018-02-03T14:48:58.116Z,67.10
2018-02-03T14:51:27.508Z,66.90
2018-02-03T14:53:56.687Z,67.80
2018-02-03T14:56:24.513Z,67.90
2018-02-03T14:58:54.021Z,68.10
2018-02-03T15:01:21.754Z,67.90
2018-02-03T15:03:50.369Z,68.60
2018-02-03T15:06:18.157Z,68.50
2018-02-03T15:08:46.656Z,68.90
2018-02-03T15:11:15.217Z,69.00
2018-02-03T15:13:43.156Z,68.90
2018-02-03T15:16:11.122Z,68.90
2018-02-03T15:18:39.779Z,69.20
2018-02-03T15:21:08.216Z,70.20
2018-02-03T15:23:36.272Z,70.20
2018-02-03T15:26:03.990Z,69.30
2018-02-03T15:28:31.701Z,69.60
2018-02-03T15:30:59.386Z,69.90
2018-02-03T15:33:27.505Z,69.90
2018-02-03T15:35:55.892Z,70.10
2018-02-03T15:38:23.866Z,69.90
2018-02-03T15:40:51.549Z,70.10
2018-02-03T15:43:20.086Z,70.10
2018-02-03T15:45:47.866Z,70.10
2018-02-03T15:48:16.515Z,70.60
2018-02-03T15:50:44.453Z,70.90
2018-02-03T15:53:12.233Z,70.70
2018-02-03T15:55:40.916Z,70.70
2018-02-03T15:58:08.835Z,70.60
2018-02-03T16:00:36.808Z,70.40
2018-02-03T16:03:04.609Z,70.60
2018-02-03T16:05:32.459Z,70.10
2018-02-03T16:08:01.093Z,67.90
2018-02-03T16:10:29.097Z,67.90
2018-02-03T16:12:58.318Z,66.70
2018-02-03T16:15:26.452Z,67.30
2018-02-03T16:17:54.350Z,67.60
2018-02-03T16:20:22.191Z,67.60
2018-02-03T16:22:49.972Z,67.20
2018-02-03T16:25:18.025Z,66.60
2018-02-03T16:27:46.457Z,66.30
2018-02-03T16:30:15.192Z,66.90
2018-02-03T16:32:43.060Z,66.90
2018-02-03T16:35:11.577Z,66.10
2018-02-03T16:37:40.162Z,66.50
2018-02-03T16:40:07.989Z,66.50
2018-02-03T16:42:35.815Z,66.80
2018-02-03T16:45:04.339Z,66.80
2018-02-03T16:47:32.457Z,66.70
2018-02-03T16:50:00.232Z,66.90
2018-02-03T16:52:28.772Z,67.00
2018-02-03T16:54:57.452Z,66.70
2018-02-03T16:57:25.225Z,66.20
2018-02-03T16:59:53.234Z,66.80
2018-02-03T17:02:20.996Z,67.20
2018-02-03T17:04:49.949Z,67.30
2018-02-03T17:07:17.718Z,67.40
2018-02-03T17:09:45.466Z,67.70
2018-02-03T17:12:13.194Z,68.00
2018-02-03T17:14:40.901Z,68.30
2018-02-03T17:17:09.397Z,68.80
2018-02-03T17:19:37.192Z,68.80
2018-02-03T17:22:05.591Z,69.00
2018-02-03T17:24:33.286Z,69.10
2018-02-03T17:27:00.973Z,69.20
2018-02-03T17:29:30.025Z,68.50
2018-02-03T17:34:32.697Z,68.60
2018-02-03T17:37:06.317Z,69.00
2018-02-03T17:39:35.645Z,67.60
2018-02-03T17:42:03.505Z,67.60
2018-02-03T17:44:31.231Z,67.10
2018-02-03T17:47:11.117Z,66.10
2018-02-03T17:49:39.074Z,66.60
2018-02-03T17:52:07.810Z,66.70
2018-02-03T17:54:36.102Z,66.60
2018-02-03T17:57:09.785Z,67.20
2018-02-03T17:59:38.295Z,66.80
2018-02-03T18:02:06.184Z,66.80
2018-02-03T18:04:34.145Z,67.40
2018-02-03T18:07:05.704Z,68.10
2018-02-03T18:09:33.480Z,68.10
2018-02-03T18:12:01.441Z,67.10
2018-02-03T18:14:29.439Z,67.40
2018-02-03T18:16:57.280Z,68.20
2018-02-03T18:19:25.172Z,66.90
2018-02-03T18:21:53.917Z,67.10
2018-02-03T18:24:21.997Z,67.00
2018-02-03T18:26:49.935Z,66.50
2018-02-03T18:29:17.656Z,67.00
2018-02-03T18:31:45.357Z,67.50
2018-02-03T18:34:13.268Z,67.20
2018-02-03T18:36:42.039Z,66.80
2018-02-03T18:39:09.906Z,66.80
2018-02-03T18:41:37.739Z,66.90
2018-02-03T18:44:05.409Z,65.70
2018-02-03T18:46:34.323Z,65.80
2018-02-03T18:49:02.783Z,65.50
2018-02-03T18:51:30.516Z,65.50
2018-02-03T18:53:58.605Z,65.60
2018-02-03T18:56:26.383Z,65.80
2018-02-03T18:58:54.344Z,66.10
2018-02-03T19:01:22.734Z,67.20
2018-02-03T19:03:50.603Z,66.60
2018-02-03T19:06:18.563Z,66.10
2018-02-03T19:08:47.785Z,67.30
2018-02-03T19:11:15.572Z,67.30
2018-02-03T19:13:44.463Z,66.40
2018-02-03T19:16:12.197Z,65.40
2018-02-03T19:18:39.930Z,64.80
2018-02-03T19:21:07.617Z,65.30
2018-02-03T19:23:35.376Z,65.10
2018-02-03T19:26:03.113Z,64.80
2018-02-03T19:28:30.825Z,65.20
2018-02-03T19:30:58.606Z,64.20
2018-02-03T19:33:26.296Z,64.40
2018-02-03T19:35:54.167Z,64.10
2018-02-03T19:38:22.851Z,64.30
2018-02-03T19:40:50.720Z,64.70
2018-02-03T19:43:18.495Z,64.50
2018-02-03T19:45:47.173Z,63.20
2018-02-03T19:48:14.952Z,63.20
2018-02-03T19:50:44.385Z,63.10
2018-02-03T19:53:12.941Z,63.40
2018-02-03T19:55:41.211Z,63.40
2018-02-03T19:58:10.428Z,62.80
2018-02-03T20:00:39.021Z,62.70
2018-02-03T20:03:07.533Z,62.10
2018-02-03T20:05:36.145Z,62.10
2018-02-03T20:08:03.997Z,62.00
2018-02-03T20:10:31.773Z,61.90
2018-02-03T20:12:59.622Z,61.70
2018-02-03T20:15:27.349Z,62.40
2018-02-03T20:17:55.097Z,62.40
2018-02-03T20:20:22.832Z,61.50
2018-02-03T20:22:50.595Z,61.90
2018-02-03T20:25:18.429Z,61.20
2018-02-03T20:27:46.137Z,61.00
2018-02-03T20:30:14.669Z,59.80
2018-02-03T20:32:42.404Z,59.80
2018-02-03T20:35:10.904Z,60.20
2018-02-03T20:37:39.515Z,59.40
2018-02-03T20:40:08.045Z,59.30
2018-02-03T20:42:36.582Z,59.80
2018-02-03T20:45:04.272Z,59.80
2018-02-03T20:47:32.971Z,60.10
2018-02-03T20:50:00.833Z,59.60
2018-02-03T20:52:28.658Z,59.70
2018-02-03T20:54:56.380Z,59.90
2018-02-03T20:57:25.105Z,59.60
2018-02-03T20:59:52.838Z,59.60
2018-02-03T21:02:21.248Z,59.40
2018-02-03T21:04:48.888Z,59.30
2018-02-03T21:07:16.605Z,59.30
2018-02-03T21:09:44.356Z,59.20
2018-02-03T21:12:12.840Z,59.30
2018-02-03T21:14:40.575Z,59.30
2018-02-03T21:17:08.265Z,59.60
2018-02-03T21:19:36.047Z,59.30
2018-02-03T21:22:04.531Z,58.90
2018-02-03T21:24:33.012Z,59.00
2018-02-03T21:27:01.596Z,59.00
2018-02-03T21:29:29.317Z,59.50
2018-02-03T21:31:57.049Z,59.30
2018-02-03T21:34:24.745Z,59.20
2018-02-03T21:36:52.448Z,58.70
2018-02-03T21:39:20.261Z,58.50
2018-02-03T21:41:47.961Z,58.80
2018-02-03T21:44:16.426Z,59.40
2018-02-03T21:46:44.193Z,59.40
2018-02-03T21:49:11.974Z,59.20
2018-02-03T21:51:39.703Z,59.10
2018-02-03T21:54:07.447Z,58.90
2018-02-03T21:56:35.514Z,58.00
2018-02-03T21:59:03.303Z,58.10
2018-02-03T22:01:31.051Z,58.00
2018-02-03T22:03:58.831Z,58.30
2018-02-03T22:06:27.370Z,59.00
2018-02-03T22:08:55.070Z,58.90
2018-02-03T22:11:22.784Z,59.40
2018-02-03T22:13:51.296Z,59.40
2018-02-03T22:16:19.037Z,59.40
2018-02-03T22:18:46.720Z,59.40
2018-02-03T22:21:14.406Z,59.40
2018-02-03T22:23:42.144Z,59.10
2018-02-03T22:26:09.868Z,60.00
2018-02-03T22:28:37.607Z,59.90
2018-02-03T22:31:05.414Z,60.20
2018-02-03T22:33:33.082Z,59.60
2018-02-03T22:36:00.868Z,59.30
2018-02-03T22:38:29.373Z,60.00
2018-02-03T22:40:57.857Z,60.00
2018-02-03T22:43:26.368Z,60.70
2018-02-03T22:45:54.058Z,59.90
2018-02-03T22:48:21.833Z,59.70
2018-02-03T22:50:49.609Z,59.80
2018-02-03T22:53:18.106Z,60.20
2018-02-03T22:55:45.809Z,60.20
2018-02-03T22:58:13.618Z,60.30
2018-02-03T23:00:41.313Z,60.20
2018-02-03T23:03:09.769Z,59.90
2018-02-03T23:05:37.556Z,59.90
2018-02-03T23:08:06.248Z,59.70
2018-02-03T23:10:33.951Z,59.80
2018-02-03T23:13:01.690Z,59.90
2018-02-03T23:15:30.201Z,59.10
2018-02-03T23:17:58.958Z,59.10
2018-02-03T23:20:26.751Z,59.50
2018-02-03T23:22:55.004Z,58.50
2018-02-03T23:25:22.749Z,57.30
2018-02-03T23:27:50.980Z,56.90
2018-02-03T23:30:18.749Z,57.40
2018-02-03T23:32:46.454Z,57.70
2018-02-03T23:35:14.257Z,57.40
2018-02-03T23:37:41.966Z,56.70
2018-02-03T23:40:09.794Z,56.90
2018-02-03T23:42:38.281Z,57.20
2018-02-03T23:45:05.979Z,57.20
2018-02-03T23:47:33.844Z,57.50
2018-02-03T23:50:01.650Z,57.40
2018-02-03T23:52:29.312Z,57.70
2018-02-03T23:54:57.133Z,58.00
2018-02-03T23:57:24.870Z,58.30
2018-02-03T23:59:52.648Z,58.00
